createdAt,value
2018-10-21T00:00:14.036Z,12.70
2018-10-21T00:02:44.158Z,10.60
2018-10-21T00:05:14.085Z,12.78
2018-10-21T00:07:43.862Z,11.68
2018-10-21T00:10:14.071Z,10.95
2018-10-21T00:12:44.176Z,14.25
2018-10-21T00:15:14.339Z,14.78
2018-10-21T00:17:44.864Z,11.83
2018-10-21T00:20:16.627Z,11.08
2018-10-21T00:22:46.725Z,10.63
2018-10-21T00:25:16.596Z,15.00
2018-10-21T00:27:46.459Z,13.30
2018-10-21T00:30:16.299Z,11.57
2018-10-21T00:32:48.159Z,11.50
2018-10-21T00:35:18.391Z,13.90
2018-10-21T00:37:48.164Z,11.20
2018-10-21T00:40:17.895Z,10.40
2018-10-21T00:42:48.312Z,13.50
2018-10-21T00:45:18.158Z,17.32
2018-10-21T00:47:48.000Z,13.70
2018-10-21T00:50:18.239Z,15.32
2018-10-21T00:52:48.312Z,15.23
2018-10-21T00:55:18.098Z,14.45
2018-10-21T00:57:47.831Z,14.87
2018-10-21T01:00:18.687Z,13.72
2018-10-21T01:02:49.016Z,12.40
2018-10-21T01:05:18.978Z,13.15
2018-10-21T01:07:48.859Z,12.45
2018-10-21T01:10:18.979Z,11.20
2018-10-21T01:12:48.846Z,11.35
2018-10-21T01:15:19.009Z,13.90
2018-10-21T01:17:48.780Z,13.90
2018-10-21T01:20:18.469Z,12.40
2018-10-21T01:22:49.117Z,13.53
2018-10-21T01:25:19.227Z,12.70
2018-10-21T01:27:49.173Z,11.75
2018-10-21T01:30:18.933Z,14.87
2018-10-21T01:32:49.028Z,12.93
2018-10-21T01:35:18.856Z,13.10
2018-10-21T01:37:48.844Z,14.98
2018-10-21T01:40:41.739Z,17.32
2018-10-21T01:43:13.497Z,13.95
2018-10-21T01:45:43.332Z,18.25
2018-10-21T01:48:14.573Z,12.18
2018-10-21T01:50:44.382Z,13.70
2018-10-21T01:53:15.144Z,12.88
2018-10-21T01:55:44.956Z,17.30
2018-10-21T01:58:14.778Z,16.40
2018-10-21T02:00:45.101Z,17.85
2018-10-21T02:03:14.906Z,13.28
2018-10-21T02:05:45.744Z,13.55
2018-10-21T02:08:15.690Z,14.25
2018-10-21T02:10:45.518Z,13.70
2018-10-21T02:13:15.418Z,13.08
2018-10-21T02:15:45.334Z,13.00
2018-10-21T02:18:15.123Z,15.48
2018-10-21T02:20:44.859Z,14.33
2018-10-21T02:23:14.745Z,15.45
2018-10-21T02:25:44.953Z,12.60
2018-10-21T02:28:14.947Z,12.37
2018-10-21T02:30:44.677Z,16.00
2018-10-21T02:33:14.601Z,14.55
2018-10-21T02:35:44.290Z,12.15
2018-10-21T02:38:17.260Z,12.65
2018-10-21T02:41:56.451Z,15.20
2018-10-21T02:44:26.344Z,16.12
2018-10-21T02:46:57.398Z,13.85
2018-10-21T02:49:27.183Z,16.10
2018-10-21T02:52:02.094Z,17.92
2018-10-21T02:54:32.729Z,14.68
2018-10-21T02:57:02.905Z,13.50
2018-10-21T02:59:32.970Z,13.68
2018-10-21T03:02:02.780Z,15.35
2018-10-21T03:04:32.617Z,13.85
2018-10-21T03:07:02.415Z,12.65
2018-10-21T03:09:33.137Z,12.45
2018-10-21T03:12:03.206Z,13.80
2018-10-21T03:14:34.090Z,12.75
2018-10-21T03:17:03.960Z,14.13
2018-10-21T03:19:33.920Z,15.20
2018-10-21T03:22:03.890Z,13.40
2018-10-21T03:24:33.873Z,13.40
2018-10-21T03:27:04.155Z,14.60
2018-10-21T03:29:34.224Z,15.20
2018-10-21T03:32:04.576Z,15.53
2018-10-21T03:34:34.381Z,19.20
2018-10-21T03:37:04.435Z,12.33
2018-10-21T03:39:34.344Z,15.55
2018-10-21T03:42:04.359Z,14.23
2018-10-21T03:44:34.104Z,14.05
2018-10-21T03:47:04.102Z,15.75
2018-10-21T03:49:34.053Z,16.62
2018-10-21T03:52:04.122Z,14.70
2018-10-21T03:54:34.255Z,18.27
2018-10-21T03:57:04.163Z,13.65
2018-10-21T03:59:34.133Z,16.48
2018-10-21T04:02:04.088Z,17.52
2018-10-21T04:04:34.112Z,14.58
2018-10-21T04:07:04.169Z,12.15
2018-10-21T04:09:33.960Z,13.70
2018-10-21T04:12:04.013Z,14.83
2018-10-21T04:14:34.521Z,14.13
2018-10-21T04:17:05.119Z,16.55
2018-10-21T04:19:34.928Z,17.20
2018-10-21T04:22:05.019Z,19.48
2018-10-21T04:24:34.921Z,14.78
2018-10-21T04:27:05.038Z,14.10
2018-10-21T04:29:34.861Z,13.55
2018-10-21T04:32:04.976Z,14.73
2018-10-21T04:34:34.891Z,14.18
2018-10-21T04:39:28.203Z,14.28
2018-10-21T04:41:57.927Z,16.85
2018-10-21T04:44:27.654Z,12.50
2018-10-21T04:46:57.465Z,14.78
2018-10-21T04:49:27.258Z,15.95
2018-10-21T04:51:57.381Z,13.75
2018-10-21T04:54:29.341Z,13.95
2018-10-21T04:56:59.414Z,17.82
2018-10-21T04:59:29.531Z,14.43
2018-10-21T05:01:59.571Z,15.63
2018-10-21T05:04:29.725Z,17.48
2018-10-21T05:06:59.835Z,16.87
2018-10-21T05:09:29.656Z,19.25
2018-10-21T05:11:59.514Z,14.50
2018-10-21T05:14:29.421Z,14.50
2018-10-21T05:16:59.491Z,15.30
2018-10-21T05:22:09.903Z,14.70
2018-10-21T05:24:39.922Z,14.25
2018-10-21T05:27:10.028Z,14.90
2018-10-21T05:29:39.988Z,14.10
2018-10-21T05:32:09.696Z,13.85
2018-10-21T05:34:39.602Z,17.62
2018-10-21T05:37:09.598Z,15.48
2018-10-21T05:39:39.313Z,13.03
2018-10-21T05:42:09.087Z,16.37
2018-10-21T05:44:39.175Z,15.08
2018-10-21T05:47:09.011Z,14.85
2018-10-21T05:49:39.029Z,16.87
2018-10-21T05:52:09.140Z,13.83
2018-10-21T05:54:42.261Z,15.55
2018-10-21T05:57:11.983Z,20.15
2018-10-21T05:59:41.750Z,17.37
2018-10-21T06:02:11.860Z,17.15
2018-10-21T06:04:41.682Z,15.10
2018-10-21T06:07:11.488Z,15.32
2018-10-21T06:09:41.497Z,17.70
2018-10-21T06:12:11.501Z,16.55
2018-10-21T06:14:41.542Z,15.43
2018-10-21T06:17:18.132Z,14.85
2018-10-21T06:19:51.645Z,16.45
2018-10-21T06:22:21.720Z,16.93
2018-10-21T06:24:52.116Z,14.90
2018-10-21T06:27:21.967Z,19.82
2018-10-21T06:29:52.125Z,17.32
2018-10-21T06:32:21.923Z,15.60
2018-10-21T06:34:51.918Z,15.65
2018-10-21T06:37:22.494Z,16.45
2018-10-21T06:39:52.604Z,17.77
2018-10-21T06:42:22.404Z,18.90
2018-10-21T06:44:52.374Z,14.53
2018-10-21T06:47:22.506Z,15.60
2018-10-21T06:49:52.337Z,16.30
2018-10-21T06:52:22.163Z,20.40
2018-10-21T06:54:52.832Z,21.45
2018-10-21T06:57:23.373Z,24.80
2018-10-21T06:59:53.154Z,19.98
2018-10-21T07:02:23.316Z,19.25
2018-10-21T07:04:53.380Z,24.43
2018-10-21T07:07:23.172Z,18.50
2018-10-21T07:09:52.875Z,18.77
2018-10-21T07:12:22.912Z,18.65
2018-10-21T07:14:52.617Z,23.20
2018-10-21T07:17:22.680Z,21.68
2018-10-21T07:19:52.404Z,17.85
2018-10-21T07:22:22.455Z,23.02
2018-10-21T07:24:52.701Z,22.42
2018-10-21T07:27:22.490Z,20.62
2018-10-21T07:29:52.213Z,26.52
2018-10-21T07:32:21.950Z,28.30
2018-10-21T07:34:52.133Z,25.88
2018-10-21T07:37:22.149Z,27.80
2018-10-21T07:39:52.155Z,27.67
2018-10-21T07:42:22.440Z,34.90
2018-10-21T07:44:52.607Z,30.90
2018-10-21T07:47:22.408Z,31.77
2018-10-21T07:49:52.588Z,33.55
2018-10-21T07:52:22.625Z,30.68
2018-10-21T07:54:52.880Z,30.77
2018-10-21T07:57:22.843Z,27.55
2018-10-21T07:59:53.060Z,26.68
2018-10-21T08:02:22.986Z,36.13
2018-10-21T08:04:52.870Z,25.35
2018-10-21T08:07:39.248Z,29.30
2018-10-21T08:10:09.234Z,32.53
2018-10-21T08:12:39.163Z,30.00
2018-10-21T08:15:08.975Z,23.80
2018-10-21T08:17:38.929Z,26.40
2018-10-21T08:20:08.941Z,28.63
2018-10-21T08:22:38.934Z,31.77
2018-10-21T08:25:08.789Z,30.70
2018-10-21T08:27:39.036Z,24.33
2018-10-21T08:30:08.979Z,34.40
2018-10-21T08:32:38.920Z,27.50
2018-10-21T08:35:08.871Z,26.13
2018-10-21T08:37:38.638Z,24.53
2018-10-21T08:40:08.976Z,23.90
2018-10-21T08:42:38.767Z,28.27
2018-10-21T08:45:09.124Z,26.10
2018-10-21T08:47:39.181Z,23.77
2018-10-21T08:50:09.572Z,21.17
2018-10-21T08:52:39.886Z,24.43
2018-10-21T08:55:11.210Z,24.20
2018-10-21T08:57:41.453Z,24.53
2018-10-21T09:00:16.400Z,22.30
2018-10-21T09:02:46.753Z,24.67
2018-10-21T09:05:18.858Z,24.13
2018-10-21T09:07:51.222Z,23.20
2018-10-21T09:10:21.393Z,21.37
2018-10-21T09:12:51.199Z,21.37
2018-10-21T09:15:22.267Z,22.40
2018-10-21T09:17:52.077Z,19.37
2018-10-21T09:20:21.759Z,20.60
2018-10-21T09:22:51.855Z,22.93
2018-10-21T09:25:21.808Z,19.57
2018-10-21T09:27:51.923Z,19.27
2018-10-21T09:30:21.803Z,22.43
2018-10-21T09:32:51.931Z,21.00
2018-10-21T09:35:21.886Z,16.77
2018-10-21T09:37:51.801Z,20.63
2018-10-21T09:40:21.861Z,17.30
2018-10-21T09:42:51.636Z,19.13
2018-10-21T09:45:22.208Z,17.67
2018-10-21T09:47:52.271Z,17.63
2018-10-21T09:50:22.357Z,16.83
2018-10-21T09:52:52.349Z,18.33
2018-10-21T09:55:23.736Z,15.90
2018-10-21T09:57:53.834Z,12.90
2018-10-21T10:00:28.904Z,13.00
2018-10-21T10:03:03.496Z,13.40
2018-10-21T10:05:33.797Z,11.70
2018-10-21T10:08:03.869Z,10.57
2018-10-21T10:10:33.806Z,12.30
2018-10-21T10:13:03.818Z,9.23
2018-10-21T10:15:33.899Z,9.50
2018-10-21T10:18:03.759Z,10.10
2018-10-21T10:20:33.571Z,10.20
2018-10-21T10:23:03.344Z,11.33
2018-10-21T10:25:33.855Z,8.90
2018-10-21T10:28:03.729Z,6.13
2018-10-21T10:30:33.782Z,7.70
2018-10-21T10:33:03.571Z,5.03
2018-10-21T10:35:33.612Z,4.80
2018-10-21T10:38:03.934Z,7.03
2018-10-21T10:40:34.137Z,7.23
2018-10-21T10:43:04.246Z,3.83
2018-10-21T10:45:34.080Z,3.40
2018-10-21T10:48:04.129Z,5.53
2018-10-21T10:50:33.947Z,4.37
2018-10-21T10:53:04.074Z,7.40
2018-10-21T10:55:39.387Z,5.43
2018-10-21T10:58:09.374Z,4.73
2018-10-21T11:00:39.233Z,5.37
2018-10-21T11:03:09.090Z,5.13
2018-10-21T11:05:39.063Z,5.33
2018-10-21T11:08:09.150Z,3.90
2018-10-21T11:10:39.208Z,4.60
2018-10-21T11:13:09.100Z,4.20
2018-10-21T11:15:39.031Z,5.33
2018-10-21T11:18:10.746Z,8.07
2018-10-21T11:20:40.734Z,6.37
2018-10-21T11:23:10.744Z,4.27
2018-10-21T11:25:40.891Z,8.90
2018-10-21T11:28:10.769Z,5.90
2018-10-21T11:30:40.780Z,8.00
2018-10-21T11:33:10.775Z,7.93
2018-10-21T11:35:40.808Z,5.50
2018-10-21T11:38:10.751Z,5.43
2018-10-21T11:40:40.767Z,6.33
2018-10-21T11:43:10.934Z,7.30
2018-10-21T11:45:40.764Z,5.80
2018-10-21T11:48:10.545Z,8.10
2018-10-21T11:50:40.272Z,8.23
2018-10-21T11:53:10.091Z,7.67
2018-10-21T11:55:41.587Z,6.60
2018-10-21T11:58:14.081Z,6.50
2018-10-21T12:00:45.842Z,7.77
2018-10-21T12:03:15.857Z,8.03
2018-10-21T12:05:45.795Z,8.20
2018-10-21T12:08:15.828Z,6.50
2018-10-21T12:10:45.665Z,5.03
2018-10-21T12:13:15.556Z,6.50
2018-10-21T12:15:45.344Z,6.37
2018-10-21T12:18:15.328Z,8.20
2018-10-21T12:20:45.394Z,4.97
2018-10-21T12:23:15.217Z,5.63
2018-10-21T12:25:53.063Z,5.30
2018-10-21T12:28:22.964Z,5.40
2018-10-21T12:30:52.997Z,7.60
2018-10-21T12:33:37.739Z,5.50
2018-10-21T12:36:07.827Z,9.33
2018-10-21T12:38:37.877Z,6.40
2018-10-21T12:41:10.269Z,5.50
2018-10-21T12:43:40.797Z,6.70
2018-10-21T12:46:10.726Z,4.20
2018-10-21T12:48:40.539Z,4.53
2018-10-21T12:51:10.235Z,6.10
2018-10-21T12:53:40.439Z,4.73
2018-10-21T12:56:10.719Z,5.07
2018-10-21T12:58:40.928Z,4.57
2018-10-21T13:01:10.828Z,4.03
2018-10-21T13:03:40.641Z,5.80
2018-10-21T13:06:10.718Z,4.10
2018-10-21T13:08:40.811Z,4.93
2018-10-21T13:11:10.628Z,5.00
2018-10-21T13:13:40.522Z,3.90
2018-10-21T13:16:10.408Z,4.17
2018-10-21T13:18:40.514Z,4.80
2018-10-21T13:21:10.776Z,3.70
2018-10-21T13:23:40.763Z,5.30
2018-10-21T13:26:10.719Z,3.33
2018-10-21T13:28:40.773Z,3.50
2018-10-21T13:31:10.661Z,3.10
2018-10-21T13:33:40.386Z,3.70
2018-10-21T13:36:10.518Z,2.83
2018-10-21T13:38:41.568Z,3.03
2018-10-21T13:41:28.100Z,4.40
2018-10-21T13:43:59.494Z,3.13
2018-10-21T13:46:30.717Z,2.80
2018-10-21T13:49:00.467Z,4.43
2018-10-21T13:51:30.316Z,5.20
2018-10-21T13:54:00.513Z,3.10
2018-10-21T13:56:32.600Z,5.63
2018-10-21T13:59:02.917Z,5.17
2018-10-21T14:01:33.004Z,2.97
2018-10-21T14:04:04.094Z,3.27
2018-10-21T14:06:34.103Z,3.13
2018-10-21T14:09:08.361Z,6.60
2018-10-21T14:11:39.932Z,3.67
2018-10-21T14:14:11.990Z,3.50
2018-10-21T14:16:42.297Z,3.30
2018-10-21T14:19:12.236Z,3.80
2018-10-21T14:21:42.499Z,2.67
2018-10-21T14:24:12.898Z,4.73
2018-10-21T14:26:42.838Z,3.23
2018-10-21T14:29:13.732Z,3.40
2018-10-21T14:31:48.014Z,3.60
2018-10-21T14:34:59.544Z,4.03
2018-10-21T14:37:48.178Z,3.33
2018-10-21T14:40:18.111Z,4.63
2018-10-21T14:43:07.438Z,3.83
2018-10-21T14:45:37.971Z,3.17
2018-10-21T14:54:13.138Z,5.00
2018-10-21T14:57:07.329Z,3.07
2018-10-21T14:59:37.503Z,4.00
2018-10-21T15:02:35.596Z,3.07
2018-10-21T15:05:08.226Z,5.10
2018-10-21T15:07:58.123Z,2.60
2018-10-21T15:10:28.018Z,3.23
2018-10-21T15:12:59.312Z,4.70
2018-10-21T15:15:29.942Z,4.07
2018-10-21T15:18:12.464Z,4.50
2018-10-21T15:24:03.413Z,5.70
2018-10-21T15:29:33.711Z,4.50
2018-10-21T15:38:22.947Z,3.47
2018-10-21T15:44:09.336Z,5.60
2018-10-21T15:46:39.553Z,3.47
2018-10-21T15:49:10.844Z,3.33
2018-10-21T15:51:41.020Z,3.00
2018-10-21T15:54:11.224Z,3.80
2018-10-21T15:56:41.486Z,5.30
2018-10-21T15:59:35.008Z,6.20
2018-10-21T16:05:03.761Z,4.53
2018-10-21T16:07:46.908Z,2.87
2018-10-21T16:10:16.754Z,2.87
2018-10-21T16:12:46.742Z,6.10
2018-10-21T16:21:17.316Z,4.37
2018-10-21T16:23:47.353Z,5.60
2018-10-21T16:26:17.397Z,4.63
2018-10-21T16:31:56.263Z,7.57
2018-10-21T16:37:26.311Z,6.93
2018-10-21T16:40:09.198Z,3.43
2018-10-21T16:42:39.775Z,5.40
2018-10-21T16:45:34.497Z,4.40
2018-10-21T16:48:16.837Z,8.23
2018-10-21T16:57:04.968Z,5.00
2018-10-21T16:59:35.153Z,6.53
2018-10-21T17:02:05.534Z,7.63
2018-10-21T17:05:04.127Z,4.03
2018-10-21T17:07:34.280Z,4.73
2018-10-21T17:13:33.814Z,3.73
2018-10-21T17:16:04.017Z,6.40
2018-10-21T17:18:34.092Z,5.10
2018-10-21T17:24:08.167Z,8.63
2018-10-21T17:26:38.264Z,5.53
2018-10-21T17:29:08.329Z,5.27
2018-10-21T17:35:03.799Z,7.50
2018-10-21T17:41:20.300Z,8.00
2018-10-21T17:43:50.464Z,4.20
2018-10-21T17:46:20.628Z,4.60
2018-10-21T17:48:54.753Z,5.70
2018-10-21T17:51:24.840Z,6.83
2018-10-21T17:53:55.025Z,3.77
2018-10-21T17:56:41.979Z,13.47
2018-10-21T17:59:12.478Z,4.57
2018-10-21T18:02:05.599Z,6.33
2018-10-21T18:04:47.913Z,6.00
2018-10-21T18:07:21.401Z,6.87
2018-10-21T18:10:07.518Z,7.70
2018-10-21T18:12:37.893Z,8.03
2018-10-21T18:15:33.845Z,7.20
2018-10-21T18:18:03.958Z,5.43
2018-10-21T18:20:37.460Z,5.70
2018-10-21T18:23:07.473Z,5.10
2018-10-21T18:28:37.260Z,7.83
2018-10-21T18:34:25.628Z,7.27
2018-10-21T18:36:55.819Z,5.00
2018-10-21T18:39:43.528Z,5.20
2018-10-21T18:42:18.778Z,6.17
2018-10-21T18:44:48.863Z,6.77
2018-10-21T18:50:18.683Z,5.40
2018-10-21T18:53:00.658Z,7.33
2018-10-21T18:55:59.260Z,5.90
2018-10-21T18:58:29.371Z,5.53
2018-10-21T19:46:31.009Z,6.93
2018-10-21T19:49:01.034Z,8.77
2018-10-21T19:51:31.052Z,8.03
2018-10-21T19:54:01.208Z,10.63
2018-10-21T19:56:53.446Z,9.87
2018-10-21T19:59:51.791Z,10.30
2018-10-21T20:02:50.984Z,9.07
2018-10-21T20:14:45.963Z,8.17
2018-10-21T20:17:16.204Z,8.63
2018-10-21T20:19:46.427Z,9.17
2018-10-21T20:25:16.720Z,9.93
2018-10-21T20:28:02.750Z,9.23
2018-10-21T20:30:33.693Z,8.60
2018-10-21T20:33:03.694Z,8.23
2018-10-21T20:38:33.912Z,9.13
2018-10-21T20:41:03.948Z,7.97
2018-10-21T20:46:34.333Z,9.50
2018-10-21T20:55:04.706Z,9.97
2018-10-21T21:00:34.508Z,9.20
2018-10-21T21:03:32.597Z,11.80
2018-10-21T21:06:34.644Z,8.27
2018-10-21T21:15:05.273Z,8.57
2018-10-21T21:17:35.252Z,8.53
2018-10-21T21:20:05.292Z,8.47
2018-10-21T21:22:35.241Z,11.53
2018-10-21T21:25:07.288Z,9.00
2018-10-21T21:27:37.519Z,9.10
2018-10-21T21:30:08.954Z,11.60
2018-10-21T21:32:38.921Z,10.00
2018-10-21T21:38:32.886Z,9.57
2018-10-21T21:41:06.466Z,9.97
2018-10-21T21:43:36.569Z,9.00
2018-10-21T21:46:07.812Z,9.60
2018-10-21T21:48:50.958Z,8.10
2018-10-21T21:51:21.141Z,8.57
2018-10-21T21:53:56.759Z,9.30
2018-10-21T21:59:14.367Z,9.10
2018-10-21T22:01:54.284Z,11.30
2018-10-21T22:04:24.693Z,9.60
2018-10-21T22:06:55.465Z,9.90
2018-10-21T22:09:26.204Z,10.90
2018-10-21T22:14:57.693Z,10.17
2018-10-21T22:17:29.372Z,12.87
2018-10-21T22:20:00.465Z,9.60
2018-10-21T22:31:41.408Z,9.15
2018-10-21T22:34:11.604Z,9.47
2018-10-21T22:36:41.714Z,8.10
2018-10-21T22:39:11.765Z,10.20
2018-10-21T22:41:41.765Z,9.77
2018-10-21T22:50:22.809Z,8.90
2018-10-21T22:52:52.976Z,8.53
2018-10-21T22:55:23.140Z,10.50
2018-10-21T22:57:53.339Z,14.00
2018-10-21T23:03:59.697Z,11.08
2018-10-21T23:06:30.334Z,11.30
2018-10-21T23:09:02.397Z,10.07
2018-10-21T23:11:33.117Z,11.65
2018-10-21T23:14:03.736Z,10.45
2018-10-21T23:16:34.966Z,13.83
2018-10-21T23:22:04.336Z,10.72
2018-10-21T23:24:34.868Z,10.47
2018-10-21T23:27:05.267Z,10.07
2018-10-21T23:29:53.987Z,9.87
2018-10-21T23:32:24.540Z,11.23
2018-10-21T23:34:54.645Z,10.70
2018-10-21T23:37:24.870Z,10.00
2018-10-21T23:39:55.396Z,12.33
2018-10-21T23:42:25.829Z,11.03
2018-10-21T23:44:56.061Z,11.00
2018-10-21T23:47:30.473Z,11.87
2018-10-21T23:50:01.032Z,11.40
2018-10-21T23:52:31.452Z,11.00
2018-10-21T23:55:20.944Z,11.60
2018-10-21T23:57:59.131Z,10.53
